createdAt,value
2022-07-25T00:00:58.516Z,0.00
2022-07-25T00:01:58.635Z,0.00
2022-07-25T00:02:58.523Z,0.00
2022-07-25T00:03:58.588Z,0.00
2022-07-25T00:04:58.642Z,0.00
2022-07-25T00:05:58.539Z,0.00
2022-07-25T00:06:58.529Z,0.00
2022-07-25T00:07:58.535Z,0.00
2022-07-25T00:08:58.540Z,0.00
2022-07-25T00:09:58.542Z,0.00
2022-07-25T00:10:58.539Z,0.00
2022-07-25T00:11:58.542Z,0.00
2022-07-25T00:12:58.543Z,0.00
2022-07-25T00:13:58.550Z,0.00
2022-07-25T00:14:58.547Z,0.00
2022-07-25T00:15:58.623Z,0.00
2022-07-25T00:16:58.553Z,0.00
2022-07-25T00:17:58.563Z,0.00
2022-07-25T00:18:58.559Z,0.00
2022-07-25T00:19:58.563Z,0.00
2022-07-25T00:20:58.560Z,0.00
2022-07-25T00:21:58.566Z,0.00
2022-07-25T00:22:59.017Z,0.00
2022-07-25T00:23:58.571Z,0.00
2022-07-25T00:24:58.573Z,0.00
2022-07-25T00:25:58.575Z,0.00
2022-07-25T00:26:58.611Z,0.00
2022-07-25T00:27:58.583Z,0.00
2022-07-25T00:28:58.582Z,0.00
2022-07-25T00:29:58.585Z,0.00
2022-07-25T00:30:59.252Z,0.00
2022-07-25T00:31:58.587Z,0.00
2022-07-25T00:32:58.591Z,0.00
2022-07-25T00:33:58.593Z,0.00
2022-07-25T00:34:58.594Z,0.00
2022-07-25T00:35:58.595Z,0.00
2022-07-25T00:36:58.598Z,0.00
2022-07-25T00:37:58.600Z,0.00
2022-07-25T00:38:58.603Z,0.00
2022-07-25T00:39:58.605Z,0.00
2022-07-25T00:40:58.609Z,0.00
2022-07-25T00:41:58.611Z,0.00
2022-07-25T00:42:58.610Z,0.00
2022-07-25T00:43:58.613Z,0.00
2022-07-25T00:44:58.614Z,0.00
2022-07-25T00:45:59.523Z,0.00
2022-07-25T00:46:58.790Z,0.00
2022-07-25T00:47:58.624Z,0.00
2022-07-25T00:48:58.704Z,0.00
2022-07-25T00:49:58.634Z,0.00
2022-07-25T00:50:58.631Z,0.00
2022-07-25T00:51:58.633Z,0.00
2022-07-25T00:52:58.632Z,0.00
2022-07-25T00:53:58.636Z,0.00
2022-07-25T00:54:58.640Z,0.00
2022-07-25T00:55:58.639Z,0.00
2022-07-25T00:56:58.640Z,0.00
2022-07-25T00:57:58.642Z,0.00
2022-07-25T00:58:58.644Z,0.00
2022-07-25T00:59:58.647Z,0.00
2022-07-25T01:00:58.647Z,0.00
2022-07-25T01:01:58.718Z,0.00
2022-07-25T01:02:58.704Z,0.00
2022-07-25T01:03:58.660Z,0.00
2022-07-25T01:04:58.665Z,0.00
2022-07-25T01:05:58.660Z,0.00
2022-07-25T01:06:58.666Z,0.00
2022-07-25T01:07:58.663Z,0.00
2022-07-25T01:08:58.663Z,0.00
2022-07-25T01:09:58.665Z,0.00
2022-07-25T01:10:58.678Z,0.00
2022-07-25T01:11:58.675Z,0.00
2022-07-25T01:12:58.673Z,0.00
2022-07-25T01:13:58.674Z,0.00
2022-07-25T01:14:58.675Z,0.00
2022-07-25T01:15:58.748Z,0.00
2022-07-25T01:16:58.680Z,0.00
2022-07-25T01:17:58.681Z,0.00
2022-07-25T01:18:58.683Z,0.00
2022-07-25T01:19:58.686Z,0.00
2022-07-25T01:20:58.687Z,0.00
2022-07-25T01:21:58.688Z,0.00
2022-07-25T01:22:59.092Z,0.00
2022-07-25T01:23:58.693Z,0.00
2022-07-25T01:24:58.693Z,0.00
2022-07-25T01:25:58.700Z,0.00
2022-07-25T01:26:58.702Z,0.00
2022-07-25T01:27:58.700Z,0.00
2022-07-25T01:28:58.704Z,0.00
2022-07-25T01:29:58.705Z,0.00
2022-07-25T01:30:58.768Z,0.00
2022-07-25T01:31:58.710Z,0.00
2022-07-25T01:32:58.709Z,0.00
2022-07-25T01:33:58.715Z,0.00
2022-07-25T01:34:58.715Z,0.00
2022-07-25T01:35:58.728Z,0.00
2022-07-25T01:36:58.719Z,0.00
2022-07-25T01:37:58.723Z,0.00
2022-07-25T01:38:58.722Z,0.00
2022-07-25T01:39:58.726Z,0.00
2022-07-25T01:40:58.729Z,0.00
2022-07-25T01:41:58.730Z,0.00
2022-07-25T01:42:58.733Z,0.00
2022-07-25T01:43:58.732Z,0.00
2022-07-25T01:44:58.733Z,0.00
2022-07-25T01:45:58.819Z,0.00
2022-07-25T01:46:58.736Z,0.00
2022-07-25T01:47:58.743Z,0.00
2022-07-25T01:48:58.858Z,0.00
2022-07-25T01:49:58.744Z,0.00
2022-07-25T01:50:58.748Z,0.00
2022-07-25T01:51:58.744Z,0.00
2022-07-25T01:52:58.749Z,0.00
2022-07-25T01:53:58.753Z,0.00
2022-07-25T01:54:58.781Z,0.00
2022-07-25T01:55:58.758Z,0.00
2022-07-25T01:56:58.753Z,0.00
2022-07-25T01:57:58.758Z,0.00
2022-07-25T01:58:58.760Z,0.00
2022-07-25T01:59:58.763Z,0.00
2022-07-25T02:00:58.878Z,0.00
2022-07-25T02:01:58.830Z,0.00
2022-07-25T02:02:58.764Z,0.00
2022-07-25T02:03:58.769Z,0.00
2022-07-25T02:04:58.853Z,0.00
2022-07-25T02:05:58.774Z,0.00
2022-07-25T02:06:58.774Z,0.00
2022-07-25T02:07:58.774Z,0.00
2022-07-25T02:08:58.777Z,0.00
2022-07-25T02:09:58.780Z,0.00
2022-07-25T02:10:58.780Z,0.00
2022-07-25T02:11:58.786Z,0.00
2022-07-25T02:12:58.786Z,0.00
2022-07-25T02:13:58.786Z,0.00
2022-07-25T02:14:58.787Z,0.00
2022-07-25T02:15:58.795Z,0.00
2022-07-25T02:16:58.851Z,0.00
2022-07-25T02:17:58.795Z,0.00
2022-07-25T02:18:58.796Z,0.00
2022-07-25T02:19:58.795Z,0.00
2022-07-25T02:20:58.797Z,0.00
2022-07-25T02:21:58.804Z,0.00
2022-07-25T02:22:58.806Z,0.00
2022-07-25T02:23:58.804Z,0.00
2022-07-25T02:24:58.810Z,0.00
2022-07-25T02:25:58.810Z,0.00
2022-07-25T02:26:58.810Z,0.00
2022-07-25T02:27:58.811Z,0.00
2022-07-25T02:28:58.815Z,0.00
2022-07-25T02:29:58.817Z,0.00
2022-07-25T02:30:58.870Z,0.00
2022-07-25T02:31:58.820Z,0.00
2022-07-25T02:32:58.822Z,0.00
2022-07-25T02:33:58.822Z,0.00
2022-07-25T02:34:58.823Z,0.00
2022-07-25T02:35:58.822Z,0.00
2022-07-25T02:36:58.826Z,0.00
2022-07-25T02:37:58.828Z,0.00
2022-07-25T02:38:58.831Z,0.00
2022-07-25T02:39:58.831Z,0.00
2022-07-25T02:40:58.835Z,0.00
2022-07-25T02:41:58.834Z,0.00
2022-07-25T02:42:58.844Z,0.00
2022-07-25T02:43:58.836Z,0.00
2022-07-25T02:44:58.844Z,0.00
2022-07-25T02:45:58.900Z,0.00
2022-07-25T02:46:58.843Z,0.00
2022-07-25T02:47:58.845Z,0.00
2022-07-25T02:48:58.902Z,0.00
2022-07-25T02:49:58.847Z,0.00
2022-07-25T02:50:58.852Z,0.00
2022-07-25T02:51:58.849Z,0.00
2022-07-25T02:52:58.855Z,0.00
2022-07-25T02:53:59.280Z,0.00
2022-07-25T02:54:58.855Z,0.00
2022-07-25T02:55:58.858Z,0.00
2022-07-25T02:56:58.867Z,0.00
2022-07-25T02:57:58.874Z,0.00
2022-07-25T02:58:58.863Z,0.00
2022-07-25T02:59:58.865Z,0.00
2022-07-25T03:00:58.934Z,0.00
2022-07-25T03:01:58.868Z,0.00
2022-07-25T03:02:58.874Z,0.00
2022-07-25T03:03:58.916Z,0.00
2022-07-25T03:04:58.874Z,0.00
2022-07-25T03:05:58.878Z,0.00
2022-07-25T03:06:58.881Z,0.00
2022-07-25T03:07:58.881Z,0.00
2022-07-25T03:08:58.882Z,0.00
2022-07-25T03:09:58.891Z,0.00
2022-07-25T03:10:58.886Z,0.00
2022-07-25T03:11:58.887Z,0.00
2022-07-25T03:12:58.894Z,0.00
2022-07-25T03:13:58.887Z,0.00
2022-07-25T03:14:58.889Z,0.00
2022-07-25T03:15:58.889Z,0.00
2022-07-25T03:16:58.948Z,0.00
2022-07-25T03:17:58.896Z,0.00
2022-07-25T03:18:58.897Z,0.00
2022-07-25T03:19:58.899Z,0.00
2022-07-25T03:20:58.900Z,0.00
2022-07-25T03:21:58.899Z,0.00
2022-07-25T03:22:58.907Z,0.00
2022-07-25T03:23:58.905Z,0.00
2022-07-25T03:24:58.909Z,0.00
2022-07-25T03:25:58.925Z,0.00
2022-07-25T03:26:58.914Z,0.00
2022-07-25T03:27:58.911Z,0.00
2022-07-25T03:28:58.911Z,0.00
2022-07-25T03:29:58.911Z,4.00
2022-07-25T03:30:58.914Z,4.00
2022-07-25T03:31:58.999Z,0.00
2022-07-25T03:32:58.918Z,0.00
2022-07-25T03:33:58.918Z,0.00
2022-07-25T03:34:58.924Z,4.00
2022-07-25T03:35:58.921Z,4.00
2022-07-25T03:36:58.928Z,0.00
2022-07-25T03:37:58.927Z,4.00
2022-07-25T03:38:58.928Z,4.00
2022-07-25T03:39:58.928Z,4.00
2022-07-25T03:40:58.930Z,4.00
2022-07-25T03:41:58.929Z,4.00
2022-07-25T03:42:58.934Z,4.00
2022-07-25T03:43:58.939Z,4.00
2022-07-25T03:44:58.936Z,4.00
2022-07-25T03:45:59.009Z,4.00
2022-07-25T03:46:58.943Z,8.00
2022-07-25T03:47:58.943Z,8.00
2022-07-25T03:48:58.994Z,8.00
2022-07-25T03:49:58.943Z,12.00
2022-07-25T03:51:02.287Z,8.00
2022-07-25T03:51:58.955Z,12.00
2022-07-25T03:52:58.950Z,12.00
2022-07-25T03:53:58.950Z,12.00
2022-07-25T03:54:58.952Z,12.00
2022-07-25T03:55:58.950Z,12.00
2022-07-25T03:56:58.954Z,16.00
2022-07-25T03:57:58.970Z,16.00
2022-07-25T03:58:58.961Z,16.00
2022-07-25T03:59:58.969Z,20.00
2022-07-25T04:00:59.026Z,16.00
2022-07-25T04:01:59.000Z,20.00
2022-07-25T04:02:58.963Z,20.00
2022-07-25T04:03:58.965Z,20.00
2022-07-25T04:04:58.967Z,24.00
2022-07-25T04:05:58.971Z,24.00
2022-07-25T04:06:58.970Z,24.00
2022-07-25T04:07:58.968Z,24.00
2022-07-25T04:08:58.972Z,28.00
2022-07-25T04:09:58.973Z,32.00
2022-07-25T04:10:58.974Z,32.00
2022-07-25T04:11:58.974Z,32.00
2022-07-25T04:12:58.977Z,36.00
2022-07-25T04:13:58.974Z,40.00
2022-07-25T04:14:59.009Z,40.00
2022-07-25T04:15:58.989Z,40.00
2022-07-25T04:16:59.000Z,44.00
2022-07-25T04:17:58.982Z,44.00
2022-07-25T04:18:58.985Z,48.00
2022-07-25T04:19:58.985Z,48.00
2022-07-25T04:20:58.992Z,52.00
2022-07-25T04:21:58.988Z,52.00
2022-07-25T04:22:58.988Z,60.00
2022-07-25T04:23:58.991Z,64.00
2022-07-25T04:24:58.992Z,60.00
2022-07-25T04:25:59.000Z,72.00
2022-07-25T04:26:58.996Z,92.00
2022-07-25T04:27:59.001Z,80.00
2022-07-25T04:28:59.021Z,72.00
2022-07-25T04:29:59.004Z,72.00
2022-07-25T04:30:59.007Z,80.00
2022-07-25T04:31:59.079Z,88.00
2022-07-25T04:32:59.007Z,76.00
2022-07-25T04:33:59.005Z,76.00
2022-07-25T04:34:59.007Z,76.00
2022-07-25T04:35:59.005Z,80.00
2022-07-25T04:36:59.011Z,88.00
2022-07-25T04:37:59.012Z,96.00
2022-07-25T04:38:59.017Z,100.00
2022-07-25T04:39:59.015Z,104.00
2022-07-25T04:40:59.028Z,108.00
2022-07-25T04:41:59.015Z,112.00
2022-07-25T04:42:59.018Z,112.00
2022-07-25T04:43:59.019Z,136.00
2022-07-25T04:44:59.021Z,128.00
2022-07-25T04:45:59.069Z,128.00
2022-07-25T04:46:59.028Z,128.00
2022-07-25T04:47:59.033Z,136.00
2022-07-25T04:48:59.117Z,160.00
2022-07-25T04:49:59.026Z,196.00
2022-07-25T04:50:59.030Z,224.00
2022-07-25T04:51:59.043Z,264.00
2022-07-25T04:52:59.033Z,288.00
2022-07-25T04:53:59.038Z,296.00
2022-07-25T04:54:59.042Z,304.00
2022-07-25T04:55:59.039Z,296.00
2022-07-25T04:56:59.051Z,300.00
2022-07-25T04:57:59.041Z,288.00
2022-07-25T04:59:04.724Z,284.00
2022-07-25T04:59:59.045Z,272.00
2022-07-25T05:00:59.100Z,260.00
2022-07-25T05:01:59.106Z,216.00
2022-07-25T05:02:59.061Z,176.00
2022-07-25T05:03:59.048Z,160.00
2022-07-25T05:04:59.054Z,160.00
2022-07-25T05:05:59.050Z,156.00
2022-07-25T05:06:59.055Z,152.00
2022-07-25T05:07:59.059Z,144.00
2022-07-25T05:08:59.058Z,132.00
2022-07-25T05:09:59.083Z,132.00
2022-07-25T05:10:59.062Z,140.00
2022-07-25T05:11:59.060Z,160.00
2022-07-25T05:12:59.066Z,136.00
2022-07-25T05:13:59.066Z,128.00
2022-07-25T05:14:59.067Z,128.00
2022-07-25T05:15:59.113Z,136.00
2022-07-25T05:16:59.073Z,160.00
2022-07-25T05:17:59.072Z,152.00
2022-07-25T05:18:59.074Z,168.00
2022-07-25T05:19:59.077Z,180.00
2022-07-25T05:20:59.079Z,160.00
2022-07-25T05:21:59.080Z,176.00
2022-07-25T05:22:59.083Z,216.00
2022-07-25T05:23:59.082Z,208.00
2022-07-25T05:24:59.083Z,264.00
2022-07-25T05:25:59.084Z,224.00
2022-07-25T05:26:59.086Z,272.00
2022-07-25T05:27:59.097Z,212.00
2022-07-25T05:28:59.099Z,184.00
2022-07-25T05:29:59.095Z,188.00
2022-07-25T05:30:59.099Z,188.00
2022-07-25T05:31:59.215Z,172.00
2022-07-25T05:32:59.096Z,168.00
2022-07-25T05:33:59.103Z,180.00
2022-07-25T05:34:59.102Z,180.00
2022-07-25T05:35:59.103Z,184.00
2022-07-25T05:36:59.107Z,184.00
2022-07-25T05:37:59.109Z,188.00
2022-07-25T05:38:59.109Z,168.00
2022-07-25T05:39:59.108Z,168.00
2022-07-25T05:40:59.117Z,172.00
2022-07-25T05:41:59.114Z,168.00
2022-07-25T05:43:02.960Z,188.00
2022-07-25T05:43:59.116Z,196.00
2022-07-25T05:44:59.120Z,204.00
2022-07-25T05:45:59.123Z,204.00
2022-07-25T05:46:59.280Z,204.00
2022-07-25T05:47:59.125Z,196.00
2022-07-25T05:48:59.224Z,184.00
2022-07-25T05:49:59.134Z,192.00
2022-07-25T05:50:59.136Z,188.00
2022-07-25T05:51:59.132Z,188.00
2022-07-25T05:52:59.144Z,220.00
2022-07-25T05:53:59.139Z,244.00
2022-07-25T05:54:59.144Z,268.00
2022-07-25T05:55:59.140Z,324.00
2022-07-25T05:56:59.145Z,332.00
2022-07-25T05:57:59.150Z,344.00
2022-07-25T05:58:59.151Z,388.00
2022-07-25T05:59:59.251Z,436.00
2022-07-25T06:00:59.155Z,448.00
2022-07-25T06:01:59.271Z,500.00
2022-07-25T06:02:59.312Z,488.00
2022-07-25T06:03:59.162Z,536.00
2022-07-25T06:04:59.160Z,496.00
2022-07-25T06:05:59.160Z,412.00
2022-07-25T06:06:59.162Z,336.00
2022-07-25T06:07:59.167Z,340.00
2022-07-25T06:08:59.168Z,384.00
2022-07-25T06:09:59.168Z,372.00
2022-07-25T06:10:59.173Z,376.00
2022-07-25T06:12:01.168Z,444.00
2022-07-25T06:12:59.177Z,404.00
2022-07-25T06:13:59.178Z,380.00
2022-07-25T06:14:59.181Z,360.00
2022-07-25T06:15:59.224Z,348.00
2022-07-25T06:16:59.186Z,328.00
2022-07-25T06:17:59.186Z,352.00
2022-07-25T06:18:59.196Z,408.00
2022-07-25T06:19:59.195Z,364.00
2022-07-25T06:20:59.196Z,348.00
2022-07-25T06:21:59.194Z,344.00
2022-07-25T06:22:59.198Z,344.00
2022-07-25T06:23:59.202Z,336.00
2022-07-25T06:24:59.202Z,344.00
2022-07-25T06:25:59.202Z,340.00
2022-07-25T06:26:59.206Z,336.00
2022-07-25T06:27:59.209Z,336.00
2022-07-25T06:28:59.211Z,304.00
2022-07-25T06:29:59.218Z,284.00
2022-07-25T06:30:59.271Z,304.00
2022-07-25T06:31:59.481Z,300.00
2022-07-25T06:32:59.219Z,348.00
2022-07-25T06:33:59.220Z,372.00
2022-07-25T06:34:59.230Z,432.00
2022-07-25T06:35:59.224Z,492.00
2022-07-25T06:36:59.230Z,560.00
2022-07-25T06:37:59.236Z,592.00
2022-07-25T06:38:59.233Z,568.00
2022-07-25T06:39:59.231Z,524.00
2022-07-25T06:40:59.240Z,488.00
2022-07-25T06:41:59.236Z,544.00
2022-07-25T06:42:59.269Z,568.00
2022-07-25T06:43:59.242Z,580.00
2022-07-25T06:44:59.249Z,560.00
2022-07-25T06:45:59.249Z,576.00
2022-07-25T06:46:59.364Z,584.00
2022-07-25T06:47:59.252Z,560.00
2022-07-25T06:48:59.340Z,528.00
2022-07-25T06:49:59.261Z,480.00
2022-07-25T06:50:59.262Z,524.00
2022-07-25T06:51:59.266Z,560.00
2022-07-25T06:52:59.264Z,600.00
2022-07-25T06:53:59.267Z,620.00
2022-07-25T06:54:59.271Z,640.00
2022-07-25T06:55:59.271Z,636.00
2022-07-25T06:56:59.275Z,620.00
2022-07-25T06:57:59.277Z,560.00
2022-07-25T06:58:59.278Z,572.00
2022-07-25T06:59:59.283Z,600.00
2022-07-25T07:00:59.338Z,568.00
2022-07-25T07:01:59.291Z,604.00
2022-07-25T07:02:59.327Z,668.00
2022-07-25T07:03:59.288Z,712.00
2022-07-25T07:04:59.292Z,744.00
2022-07-25T07:05:59.293Z,732.00
2022-07-25T07:06:59.297Z,728.00
2022-07-25T07:07:59.301Z,752.00
2022-07-25T07:08:59.304Z,728.00
2022-07-25T07:09:59.311Z,744.00
2022-07-25T07:10:59.309Z,696.00
2022-07-25T07:11:59.319Z,680.00
2022-07-25T07:12:59.313Z,636.00
2022-07-25T07:13:59.325Z,624.00
2022-07-25T07:14:59.318Z,608.00
2022-07-25T07:15:59.392Z,560.00
2022-07-25T07:16:59.324Z,568.00
2022-07-25T07:17:59.325Z,612.00
2022-07-25T07:18:59.329Z,636.00
2022-07-25T07:19:59.333Z,700.00
2022-07-25T07:20:59.333Z,696.00
2022-07-25T07:21:59.338Z,728.00
2022-07-25T07:22:59.338Z,740.00
2022-07-25T07:23:59.343Z,756.00
2022-07-25T07:24:59.349Z,720.00
2022-07-25T07:25:59.355Z,748.00
2022-07-25T07:26:59.368Z,732.00
2022-07-25T07:27:59.367Z,668.00
2022-07-25T07:28:59.354Z,700.00
2022-07-25T07:29:59.362Z,688.00
2022-07-25T07:31:15.735Z,668.00
2022-07-25T07:31:59.630Z,696.00
2022-07-25T07:32:59.364Z,696.00
2022-07-25T07:33:59.372Z,796.00
2022-07-25T07:34:59.371Z,792.00
2022-07-25T07:35:59.375Z,800.00
2022-07-25T07:36:59.376Z,896.00
2022-07-25T07:37:59.381Z,936.00
2022-07-25T07:38:59.381Z,952.00
2022-07-25T07:39:59.385Z,920.00
2022-07-25T07:40:59.394Z,884.00
2022-07-25T07:41:59.392Z,908.00
2022-07-25T07:42:59.393Z,924.00
2022-07-25T07:43:59.397Z,920.00
2022-07-25T07:44:59.401Z,964.00
2022-07-25T07:45:59.607Z,948.00
2022-07-25T07:46:59.468Z,928.00
2022-07-25T07:47:59.407Z,1052.00
2022-07-25T07:48:59.499Z,1176.00
2022-07-25T07:49:59.414Z,1256.00
2022-07-25T07:50:59.418Z,1332.00
2022-07-25T07:51:59.424Z,1560.00
2022-07-25T07:52:59.420Z,1720.00
2022-07-25T07:53:59.427Z,1552.00
2022-07-25T07:54:59.669Z,1444.00
2022-07-25T07:55:59.430Z,1520.00
2022-07-25T07:56:59.432Z,1500.00
2022-07-25T07:57:59.439Z,1600.00
2022-07-25T07:58:59.440Z,1340.00
2022-07-25T07:59:59.447Z,1200.00
2022-07-25T08:00:59.462Z,1172.00
2022-07-25T08:01:59.577Z,1260.00
2022-07-25T08:02:59.583Z,1252.00
2022-07-25T08:03:59.456Z,1224.00
2022-07-25T08:04:59.466Z,1208.00
2022-07-25T08:05:59.462Z,1216.00
2022-07-25T08:06:59.466Z,1300.00
2022-07-25T08:07:59.469Z,1408.00
2022-07-25T08:08:59.468Z,1480.00
2022-07-25T08:09:59.480Z,1464.00
2022-07-25T08:10:59.862Z,1376.00
2022-07-25T08:11:59.483Z,1268.00
2022-07-25T08:12:59.481Z,1396.00
2022-07-25T08:13:59.486Z,1272.00
2022-07-25T08:14:59.491Z,1268.00
2022-07-25T08:15:59.669Z,1468.00
2022-07-25T08:16:59.495Z,1392.00
2022-07-25T08:17:59.499Z,980.00
2022-07-25T08:18:59.502Z,944.00
2022-07-25T08:20:20.669Z,1496.00
2022-07-25T08:20:59.513Z,1724.00
2022-07-25T08:21:59.516Z,1608.00
2022-07-25T08:22:59.515Z,880.00
2022-07-25T08:23:59.521Z,660.00
2022-07-25T08:24:59.524Z,516.00
2022-07-25T08:25:59.550Z,580.00
2022-07-25T08:26:59.529Z,844.00
2022-07-25T08:27:59.530Z,840.00
2022-07-25T08:29:17.548Z,812.00
2022-07-25T08:29:59.549Z,632.00
2022-07-25T08:30:59.629Z,732.00
2022-07-25T08:31:59.553Z,1252.00
2022-07-25T08:32:59.558Z,920.00
2022-07-25T08:33:59.551Z,836.00
2022-07-25T08:34:59.558Z,800.00
2022-07-25T08:35:59.558Z,692.00
2022-07-25T08:36:59.558Z,556.00
2022-07-25T08:37:59.561Z,612.00
2022-07-25T08:38:59.567Z,336.00
2022-07-25T08:39:59.573Z,312.00
2022-07-25T08:40:59.572Z,296.00
2022-07-25T08:41:59.577Z,288.00
2022-07-25T08:42:59.576Z,300.00
2022-07-25T08:43:59.583Z,452.00
2022-07-25T08:44:59.583Z,584.00
2022-07-25T08:45:59.658Z,776.00
2022-07-25T08:46:59.647Z,908.00
2022-07-25T08:47:59.595Z,1096.00
2022-07-25T08:48:59.625Z,1188.00
2022-07-25T08:50:03.904Z,844.00
2022-07-25T08:50:59.603Z,620.00
2022-07-25T08:51:59.607Z,896.00
2022-07-25T08:53:31.415Z,836.00
2022-07-25T08:53:59.620Z,1332.00
2022-07-25T08:54:59.627Z,1252.00
2022-07-25T08:55:59.622Z,1356.00
2022-07-25T08:56:59.623Z,428.00
2022-07-25T08:57:59.626Z,420.00
2022-07-25T08:58:59.629Z,744.00
2022-07-25T08:59:59.636Z,740.00
2022-07-25T09:00:59.633Z,1432.00
2022-07-25T09:01:59.727Z,2920.00
2022-07-25T09:02:59.744Z,3440.00
2022-07-25T09:03:59.645Z,2076.00
2022-07-25T09:04:59.649Z,2860.00
2022-07-25T09:05:59.754Z,2968.00
2022-07-25T09:06:59.654Z,1292.00
2022-07-25T09:07:59.662Z,2432.00
2022-07-25T09:08:59.784Z,1792.00
2022-07-25T09:09:59.666Z,1368.00
2022-07-25T09:10:59.668Z,1628.00
2022-07-25T09:11:59.676Z,1388.00
2022-07-25T09:12:59.723Z,1556.00
2022-07-25T09:13:59.685Z,1216.00
2022-07-25T09:14:59.682Z,1756.00
2022-07-25T09:15:59.783Z,1120.00
2022-07-25T09:16:59.687Z,1020.00
2022-07-25T09:17:59.692Z,988.00
2022-07-25T09:18:59.695Z,988.00
2022-07-25T09:19:59.700Z,1008.00
2022-07-25T09:20:59.701Z,972.00
2022-07-25T09:21:59.706Z,924.00
2022-07-25T09:22:59.711Z,948.00
2022-07-25T09:23:59.712Z,1020.00
2022-07-25T09:24:59.718Z,1404.00
2022-07-25T09:25:59.720Z,1056.00
2022-07-25T09:26:59.728Z,876.00
2022-07-25T09:27:59.724Z,884.00
2022-07-25T09:28:59.727Z,868.00
2022-07-25T09:29:59.737Z,868.00
2022-07-25T09:30:59.841Z,820.00
2022-07-25T09:31:59.740Z,856.00
2022-07-25T09:32:59.743Z,848.00
2022-07-25T09:33:59.750Z,1028.00
2022-07-25T09:34:59.749Z,988.00
2022-07-25T09:35:59.756Z,1016.00
2022-07-25T09:36:59.767Z,740.00
2022-07-25T09:37:59.768Z,740.00
2022-07-25T09:38:59.768Z,736.00
2022-07-25T09:39:59.772Z,676.00
2022-07-25T09:40:59.773Z,580.00
2022-07-25T09:41:59.774Z,484.00
2022-07-25T09:42:59.778Z,460.00
2022-07-25T09:43:59.788Z,568.00
2022-07-25T09:44:59.786Z,716.00
2022-07-25T09:45:59.817Z,908.00
2022-07-25T09:46:59.795Z,1020.00
2022-07-25T09:47:59.797Z,952.00
2022-07-25T09:48:59.861Z,892.00
2022-07-25T09:49:59.803Z,808.00
2022-07-25T09:50:59.810Z,648.00
2022-07-25T09:51:59.811Z,556.00
2022-07-25T09:52:59.812Z,648.00
2022-07-25T09:53:59.817Z,700.00
2022-07-25T09:54:59.822Z,644.00
2022-07-25T09:55:59.825Z,684.00
2022-07-25T09:56:59.826Z,704.00
2022-07-25T09:57:59.834Z,600.00
2022-07-25T09:58:59.834Z,532.00
2022-07-25T09:59:59.872Z,440.00
2022-07-25T10:00:59.913Z,380.00
2022-07-25T10:01:59.867Z,388.00
2022-07-25T10:02:59.910Z,316.00
2022-07-25T10:03:59.852Z,236.00
2022-07-25T10:04:59.856Z,160.00
2022-07-25T10:05:59.862Z,136.00
2022-07-25T10:06:59.862Z,136.00
2022-07-25T10:07:59.869Z,120.00
2022-07-25T10:08:59.875Z,128.00
2022-07-25T10:09:59.876Z,128.00
2022-07-25T10:10:59.885Z,148.00
2022-07-25T10:11:59.883Z,160.00
2022-07-25T10:12:59.881Z,164.00
2022-07-25T10:13:59.901Z,200.00
2022-07-25T10:14:59.890Z,204.00
2022-07-25T10:15:59.898Z,216.00
2022-07-25T10:16:59.980Z,200.00
2022-07-25T10:17:59.905Z,204.00
2022-07-25T10:18:59.912Z,200.00
2022-07-25T10:19:59.907Z,216.00
2022-07-25T10:20:59.911Z,232.00
2022-07-25T10:21:59.915Z,260.00
2022-07-25T10:22:59.916Z,268.00
2022-07-25T10:23:59.923Z,260.00
2022-07-25T10:24:59.924Z,216.00
2022-07-25T10:25:59.929Z,200.00
2022-07-25T10:26:59.931Z,196.00
2022-07-25T10:27:59.971Z,180.00
2022-07-25T10:28:59.936Z,188.00
2022-07-25T10:29:59.947Z,196.00
2022-07-25T10:30:59.980Z,220.00
2022-07-25T10:31:59.948Z,236.00
2022-07-25T10:33:00.401Z,268.00
2022-07-25T10:33:59.954Z,280.00
2022-07-25T10:34:59.957Z,240.00
2022-07-25T10:35:59.967Z,220.00
2022-07-25T10:36:59.970Z,228.00
2022-07-25T10:37:59.970Z,272.00
2022-07-25T10:38:59.973Z,312.00
2022-07-25T10:39:59.979Z,376.00
2022-07-25T10:40:59.981Z,552.00
2022-07-25T10:41:59.988Z,372.00
2022-07-25T10:42:59.985Z,332.00
2022-07-25T10:43:59.994Z,368.00
2022-07-25T10:44:59.990Z,472.00
2022-07-25T10:46:00.146Z,476.00
2022-07-25T10:46:59.998Z,624.00
2022-07-25T10:48:00.002Z,632.00
2022-07-25T10:49:00.051Z,660.00
2022-07-25T10:50:16.798Z,700.00
2022-07-25T10:51:00.083Z,600.00
2022-07-25T10:52:00.030Z,468.00
2022-07-25T10:53:00.022Z,432.00
2022-07-25T10:54:00.039Z,504.00
2022-07-25T10:55:00.027Z,444.00
2022-07-25T10:56:06.043Z,416.00
2022-07-25T10:57:00.031Z,428.00
2022-07-25T10:58:16.705Z,392.00
2022-07-25T10:59:00.039Z,332.00
2022-07-25T11:00:00.040Z,276.00
2022-07-25T11:01:00.134Z,348.00
2022-07-25T11:02:00.061Z,524.00
2022-07-25T11:03:00.162Z,504.00
2022-07-25T11:04:00.059Z,468.00
2022-07-25T11:05:00.077Z,432.00
2022-07-25T11:06:00.082Z,376.00
2022-07-25T11:07:00.072Z,408.00
2022-07-25T11:08:20.585Z,436.00
2022-07-25T11:09:00.086Z,424.00
2022-07-25T11:10:00.090Z,356.00
2022-07-25T11:11:00.083Z,304.00
2022-07-25T11:12:00.097Z,348.00
2022-07-25T11:13:00.085Z,572.00
2022-07-25T11:14:00.097Z,584.00
2022-07-25T11:15:00.111Z,560.00
2022-07-25T11:16:00.104Z,700.00
2022-07-25T11:17:00.215Z,504.00
2022-07-25T11:18:00.102Z,540.00
2022-07-25T11:19:00.114Z,504.00
2022-07-25T11:20:00.123Z,544.00
2022-07-25T11:21:05.762Z,480.00
2022-07-25T11:22:00.119Z,368.00
2022-07-25T11:23:00.121Z,416.00
2022-07-25T11:24:00.123Z,404.00
2022-07-25T11:25:00.160Z,476.00
2022-07-25T11:26:00.129Z,504.00
2022-07-25T11:27:00.134Z,612.00
2022-07-25T11:28:00.136Z,576.00
2022-07-25T11:29:00.146Z,624.00
2022-07-25T11:30:00.151Z,560.00
2022-07-25T11:31:00.148Z,520.00
2022-07-25T11:32:00.246Z,544.00
2022-07-25T11:33:00.361Z,464.00
2022-07-25T11:34:00.173Z,548.00
2022-07-25T11:35:00.168Z,524.00
2022-07-25T11:36:00.164Z,668.00
2022-07-25T11:37:00.166Z,624.00
2022-07-25T11:38:00.172Z,532.00
2022-07-25T11:39:00.176Z,496.00
2022-07-25T11:40:00.176Z,548.00
2022-07-25T11:41:00.183Z,508.00
2022-07-25T11:42:00.185Z,632.00
2022-07-25T11:43:00.269Z,644.00
2022-07-25T11:44:00.193Z,684.00
2022-07-25T11:45:00.207Z,524.00
2022-07-25T11:46:00.325Z,412.00
2022-07-25T11:47:00.204Z,456.00
2022-07-25T11:48:00.205Z,436.00
2022-07-25T11:49:00.271Z,496.00
2022-07-25T11:50:00.213Z,452.00
2022-07-25T11:51:00.219Z,400.00
2022-07-25T11:52:00.228Z,332.00
2022-07-25T11:53:00.228Z,312.00
2022-07-25T11:54:00.227Z,312.00
2022-07-25T11:55:00.234Z,468.00
2022-07-25T11:56:00.235Z,404.00
2022-07-25T11:57:00.237Z,464.00
2022-07-25T11:58:00.241Z,468.00
2022-07-25T11:59:00.245Z,512.00
2022-07-25T12:00:00.370Z,608.00
2022-07-25T12:01:00.254Z,544.00
2022-07-25T12:02:00.273Z,480.00
2022-07-25T12:03:00.460Z,436.00
2022-07-25T12:04:00.262Z,468.00
2022-07-25T12:05:00.272Z,524.00
2022-07-25T12:06:00.269Z,464.00
2022-07-25T12:07:00.275Z,444.00
2022-07-25T12:08:00.275Z,420.00
2022-07-25T12:09:00.280Z,360.00
2022-07-25T12:10:00.284Z,500.00
2022-07-25T12:11:00.291Z,524.00
2022-07-25T12:12:00.292Z,404.00
2022-07-25T12:13:00.300Z,404.00
2022-07-25T12:14:00.304Z,412.00
2022-07-25T12:15:00.305Z,488.00
2022-07-25T12:16:00.347Z,412.00
2022-07-25T12:17:00.407Z,480.00
2022-07-25T12:18:00.313Z,576.00
2022-07-25T12:19:00.322Z,428.00
2022-07-25T12:20:00.323Z,388.00
2022-07-25T12:21:00.324Z,328.00
2022-07-25T12:22:00.327Z,496.00
2022-07-25T12:23:00.333Z,548.00
2022-07-25T12:24:00.336Z,524.00
2022-07-25T12:25:00.342Z,416.00
2022-07-25T12:26:00.345Z,380.00
2022-07-25T12:27:00.352Z,324.00
2022-07-25T12:28:00.355Z,340.00
2022-07-25T12:29:00.359Z,408.00
2022-07-25T12:30:00.366Z,500.00
2022-07-25T12:31:00.430Z,520.00
2022-07-25T12:32:00.374Z,448.00
2022-07-25T12:33:00.372Z,412.00
2022-07-25T12:34:00.375Z,440.00
2022-07-25T12:35:00.392Z,444.00
2022-07-25T12:36:03.006Z,492.00
2022-07-25T12:37:00.385Z,628.00
2022-07-25T12:38:00.391Z,556.00
2022-07-25T12:39:00.393Z,552.00
2022-07-25T12:40:00.427Z,648.00
2022-07-25T12:41:00.405Z,544.00
2022-07-25T12:42:00.406Z,468.00
2022-07-25T12:43:00.409Z,372.00